Terminal Aerodrome Forecast
Issued by NWS Los Angeles, CA

Home | Current Version | Previous Version | Text Only | Print | Product List | Glossary On
Versions: 1 2 3 4 5 6 7 8 9 10 11 12 13 14 15 16 17 18 19 20 21 22
000
FTUS46 KLOX 211700
TAFSMX
TAF
KSMX 211731Z 2118/2218 35003KT P6SM OVC012
     FM212200 30015KT P6SM SCT015
     FM220100 31007KT P6SM OVC010
     FM220700 VRB03KT 5SM BR OVC006
     FM221200 VRB03KT 1/2SM FG OVC001=

USA.gov is the U.S. government's official web portal to all federal, state and local government web resources and services.